sensor_id;sensor_type;location;lat;lon;timestamp;pressure;altitude;pressure_sealevel;temperature;humidity
30935;BME280;51033;42.648;23.292;2023-03-23T00:01:00;93824.22;;;6.83;61.31
30935;BME280;51033;42.648;23.292;2023-03-23T00:03:26;93819.91;;;6.88;61.48
30935;BME280;51033;42.648;23.292;2023-03-23T00:05:54;93813.06;;;6.86;61.52
30935;BME280;51033;42.648;23.292;2023-03-23T00:08:25;93800.66;;;6.68;62.66
30935;BME280;51033;42.648;23.292;2023-03-23T00:10:52;93808.72;;;6.77;62.62
30935;BME280;51033;42.648;23.292;2023-03-23T00:13:24;93793.72;;;6.72;62.27
30935;BME280;51033;42.648;23.292;2023-03-23T00:15:50;93800.91;;;6.85;62.25
30935;BME280;51033;42.648;23.292;2023-03-23T00:18:20;93812.38;;;6.95;61.50
30935;BME280;51033;42.648;23.292;2023-03-23T00:20:50;93790.22;;;6.77;61.56
30935;BME280;51033;42.648;23.292;2023-03-23T00:23:20;93810.31;;;6.92;61.08
30935;BME280;51033;42.648;23.292;2023-03-23T00:25:50;93813.38;;;6.99;60.66
30935;BME280;51033;42.648;23.292;2023-03-23T00:28:19;93802.28;;;6.83;60.15
30935;BME280;51033;42.648;23.292;2023-03-23T00:31:04;93822.47;;;6.93;60.26
30935;BME280;51033;42.648;23.292;2023-03-23T00:33:32;93819.88;;;6.74;60.96
30935;BME280;51033;42.648;23.292;2023-03-23T00:36:03;93809.47;;;6.64;61.43
30935;BME280;51033;42.648;23.292;2023-03-23T00:38:29;93798.25;;;6.53;61.59
30935;BME280;51033;42.648;23.292;2023-03-23T00:40:54;93826.03;;;6.69;61.69
30935;BME280;51033;42.648;23.292;2023-03-23T00:43:19;93827.38;;;6.67;61.70
30935;BME280;51033;42.648;23.292;2023-03-23T00:45:45;93839.84;;;6.80;61.08
30935;BME280;51033;42.648;23.292;2023-03-23T00:48:19;93820.22;;;6.67;60.83
30935;BME280;51033;42.648;23.292;2023-03-23T00:50:44;93807.97;;;6.58;60.83
30935;BME280;51033;42.648;23.292;2023-03-23T00:53:09;93832.84;;;6.70;61.05
30935;BME280;51033;42.648;23.292;2023-03-23T00:55:35;93813.53;;;6.56;61.51
30935;BME280;51033;42.648;23.292;2023-03-23T00:58:00;93840.78;;;6.70;61.55
30935;BME280;51033;42.648;23.292;2023-03-23T01:00:26;93842.88;;;6.73;61.90
30935;BME280;51033;42.648;23.292;2023-03-23T01:02:54;93834.44;;;6.71;61.65
30935;BME280;51033;42.648;23.292;2023-03-23T01:05:20;93821.38;;;6.61;61.78
30935;BME280;51033;42.648;23.292;2023-03-23T01:07:46;93814.09;;;6.53;62.37
30935;BME280;51033;42.648;23.292;2023-03-23T01:10:13;93804.59;;;6.52;62.24
30935;BME280;51033;42.648;23.292;2023-03-23T01:12:42;93835.72;;;6.74;62.59
30935;BME280;51033;42.648;23.292;2023-03-23T01:15:08;93826.50;;;6.71;62.62
30935;BME280;51033;42.648;23.292;2023-03-23T01:17:33;93843.44;;;6.89;62.65
30935;BME280;51033;42.648;23.292;2023-03-23T01:19:59;93802.25;;;6.69;62.65
30935;BME280;51033;42.648;23.292;2023-03-23T01:22:25;93809.00;;;6.75;62.63
30935;BME280;51033;42.648;23.292;2023-03-23T01:24:50;93843.47;;;7.03;62.84
30935;BME280;51033;42.648;23.292;2023-03-23T01:27:16;93837.38;;;7.02;62.44
30935;BME280;51033;42.648;23.292;2023-03-23T01:29:41;93831.31;;;7.02;62.42
30935;BME280;51033;42.648;23.292;2023-03-23T01:32:06;93822.94;;;6.95;62.33
30935;BME280;51033;42.648;23.292;2023-03-23T01:34:32;93805.72;;;6.83;62.55
30935;BME280;51033;42.648;23.292;2023-03-23T01:36:57;93827.31;;;7.04;62.33
30935;BME280;51033;42.648;23.292;2023-03-23T01:39:22;93831.03;;;7.03;62.87
30935;BME280;51033;42.648;23.292;2023-03-23T01:41:48;93833.28;;;7.10;62.73
30935;BME280;51033;42.648;23.292;2023-03-23T01:46:42;93796.63;;;6.90;63.01
30935;BME280;51033;42.648;23.292;2023-03-23T01:49:14;93827.91;;;7.15;62.75
30935;BME280;51033;42.648;23.292;2023-03-23T01:51:48;93802.72;;;7.04;62.90
30935;BME280;51033;42.648;23.292;2023-03-23T01:54:17;93813.13;;;7.14;62.63
30935;BME280;51033;42.648;23.292;2023-03-23T01:56:51;93804.88;;;7.15;62.61
30935;BME280;51033;42.648;23.292;2023-03-23T01:59:19;93794.66;;;6.95;62.81
30935;BME280;51033;42.648;23.292;2023-03-23T02:01:46;93811.13;;;7.06;63.43
30935;BME280;51033;42.648;23.292;2023-03-23T02:04:13;93807.31;;;6.98;64.47
30935;BME280;51033;42.648;23.292;2023-03-23T02:06:40;93803.63;;;6.80;65.31
30935;BME280;51033;42.648;23.292;2023-03-23T02:09:06;93814.81;;;6.91;64.78
30935;BME280;51033;42.648;23.292;2023-03-23T02:11:32;93814.47;;;6.98;64.55
30935;BME280;51033;42.648;23.292;2023-03-23T02:13:58;93809.94;;;6.84;64.56
30935;BME280;51033;42.648;23.292;2023-03-23T02:24:26;93824.91;;;6.89;65.50
30935;BME280;51033;42.648;23.292;2023-03-23T02:27:00;93823.88;;;7.04;64.90
30935;BME280;51033;42.648;23.292;2023-03-23T02:34:53;93825.81;;;6.98;65.57
30935;BME280;51033;42.648;23.292;2023-03-23T02:37:30;93819.38;;;7.04;65.38
30935;BME280;51033;42.648;23.292;2023-03-23T02:40:10;93797.19;;;6.86;65.24
30935;BME280;51033;42.648;23.292;2023-03-23T02:42:39;93818.59;;;7.04;64.83
30935;BME280;51033;42.648;23.292;2023-03-23T02:45:08;93810.16;;;7.02;64.72
30935;BME280;51033;42.648;23.292;2023-03-23T02:47:38;93822.88;;;7.00;64.94
30935;BME280;51033;42.648;23.292;2023-03-23T02:50:05;93821.72;;;7.06;64.54
30935;BME280;51033;42.648;23.292;2023-03-23T02:52:33;93819.78;;;7.11;64.26
30935;BME280;51033;42.648;23.292;2023-03-23T02:55:01;93821.72;;;7.06;64.27
30935;BME280;51033;42.648;23.292;2023-03-23T02:57:28;93820.72;;;7.02;64.14
30935;BME280;51033;42.648;23.292;2023-03-23T02:59:54;93829.44;;;7.02;64.04
30935;BME280;51033;42.648;23.292;2023-03-23T03:02:27;93833.00;;;7.11;63.45
30935;BME280;51033;42.648;23.292;2023-03-23T03:15:53;93862.41;;;5.92;67.69
30935;BME280;51033;42.648;23.292;2023-03-23T03:19:25;93833.72;;;6.10;66.99
30935;BME280;51033;42.648;23.292;2023-03-23T03:21:19;93854.81;;;6.52;65.05
30935;BME280;51033;42.648;23.292;2023-03-23T03:23:50;93867.28;;;6.65;64.64
30935;BME280;51033;42.648;23.292;2023-03-23T03:26:19;93852.72;;;6.68;63.94
30935;BME280;51033;42.648;23.292;2023-03-23T03:28:47;93859.59;;;6.69;63.70
30935;BME280;51033;42.648;23.292;2023-03-23T03:31:19;93853.59;;;6.63;63.76
30935;BME280;51033;42.648;23.292;2023-03-23T03:33:45;93835.69;;;6.60;63.55
30935;BME280;51033;42.648;23.292;2023-03-23T03:36:17;93869.50;;;6.77;63.48
30935;BME280;51033;42.648;23.292;2023-03-23T03:38:46;93870.97;;;6.69;63.89
30935;BME280;51033;42.648;23.292;2023-03-23T03:41:12;93856.09;;;6.73;62.94
30935;BME280;51033;42.648;23.292;2023-03-23T03:43:37;93837.16;;;6.66;62.59
30935;BME280;51033;42.648;23.292;2023-03-23T03:46:03;93871.38;;;6.76;62.45
30935;BME280;51033;42.648;23.292;2023-03-23T03:48:28;93837.81;;;6.58;62.57
30935;BME280;51033;42.648;23.292;2023-03-23T03:50:54;93844.88;;;6.63;62.47
30935;BME280;51033;42.648;23.292;2023-03-23T03:53:22;93863.94;;;6.78;62.26
30935;BME280;51033;42.648;23.292;2023-03-23T03:55:48;93848.63;;;6.75;61.05
30935;BME280;51033;42.648;23.292;2023-03-23T03:58:15;93864.09;;;6.68;61.95
30935;BME280;51033;42.648;23.292;2023-03-23T04:00:41;93851.69;;;6.50;63.42
30935;BME280;51033;42.648;23.292;2023-03-23T04:03:07;93851.16;;;6.48;62.51
30935;BME280;51033;42.648;23.292;2023-03-23T04:05:34;93854.72;;;6.57;61.43
30935;BME280;51033;42.648;23.292;2023-03-23T04:08:04;93834.81;;;6.46;61.31
30935;BME280;51033;42.648;23.292;2023-03-23T04:10:30;93857.31;;;6.62;60.91
30935;BME280;51033;42.648;23.292;2023-03-23T04:12:56;93838.53;;;6.45;61.20
30935;BME280;51033;42.648;23.292;2023-03-23T04:15:22;93856.44;;;6.48;62.11
30935;BME280;51033;42.648;23.292;2023-03-23T04:17:48;93849.19;;;6.40;61.50
30935;BME280;51033;42.648;23.292;2023-03-23T04:20:15;93822.75;;;6.21;62.02
30935;BME280;51033;42.648;23.292;2023-03-23T04:22:46;93853.16;;;6.37;62.82
30935;BME280;51033;42.648;23.292;2023-03-23T04:25:16;93866.69;;;6.36;63.08
30935;BME280;51033;42.648;23.292;2023-03-23T04:27:42;93867.09;;;6.43;63.07
30935;BME280;51033;42.648;23.292;2023-03-23T04:30:09;93838.09;;;6.38;62.91
30935;BME280;51033;42.648;23.292;2023-03-23T04:32:35;93843.31;;;6.43;62.95
30935;BME280;51033;42.648;23.292;2023-03-23T04:35:01;93842.81;;;6.41;63.44
30935;BME280;51033;42.648;23.292;2023-03-23T04:37:28;93865.66;;;6.51;63.96
30935;BME280;51033;42.648;23.292;2023-03-23T04:39:57;93837.38;;;6.51;63.51
30935;BME280;51033;42.648;23.292;2023-03-23T04:42:30;93830.63;;;6.45;63.49
30935;BME280;51033;42.648;23.292;2023-03-23T04:44:56;93857.81;;;6.64;63.73
30935;BME280;51033;42.648;23.292;2023-03-23T04:47:22;93842.44;;;6.48;64.17
30935;BME280;51033;42.648;23.292;2023-03-23T04:49:48;93859.38;;;6.65;63.86
30935;BME280;51033;42.648;23.292;2023-03-23T04:52:14;93843.25;;;6.48;64.38
30935;BME280;51033;42.648;23.292;2023-03-23T04:54:40;93859.53;;;6.55;64.83
30935;BME280;51033;42.648;23.292;2023-03-23T04:57:05;93870.06;;;5.70;68.02
30935;BME280;51033;42.648;23.292;2023-03-23T04:59:33;93889.06;;;5.72;68.52
30935;BME280;51033;42.648;23.292;2023-03-23T05:01:59;93860.81;;;5.96;67.05
30935;BME280;51033;42.648;23.292;2023-03-23T05:04:24;93876.34;;;6.22;66.25
30935;BME280;51033;42.648;23.292;2023-03-23T05:06:51;93884.56;;;5.96;67.69
30935;BME280;51033;42.648;23.292;2023-03-23T05:09:17;93873.56;;;6.32;66.99
30935;BME280;51033;42.648;23.292;2023-03-23T05:11:43;93875.09;;;6.38;66.45
30935;BME280;51033;42.648;23.292;2023-03-23T05:14:08;93887.09;;;6.49;66.65
30935;BME280;51033;42.648;23.292;2023-03-23T05:16:35;93874.44;;;6.46;66.96
30935;BME280;51033;42.648;23.292;2023-03-23T05:19:02;93869.88;;;6.52;66.94
30935;BME280;51033;42.648;23.292;2023-03-23T05:21:27;93861.09;;;6.56;66.48
30935;BME280;51033;42.648;23.292;2023-03-23T05:23:53;93883.72;;;6.62;66.66
30935;BME280;51033;42.648;23.292;2023-03-23T05:26:22;93849.22;;;5.92;68.41
30935;BME280;51033;42.648;23.292;2023-03-23T05:28:54;93890.44;;;6.12;69.43
30935;BME280;51033;42.648;23.292;2023-03-23T05:31:21;93880.50;;;6.28;68.77
30935;BME280;51033;42.648;23.292;2023-03-23T05:33:47;93909.75;;;6.74;66.99
30935;BME280;51033;42.648;23.292;2023-03-23T05:36:12;93889.09;;;6.57;67.11
30935;BME280;51033;42.648;23.292;2023-03-23T05:38:41;93903.66;;;6.73;67.35
30935;BME280;51033;42.648;23.292;2023-03-23T05:41:13;93902.44;;;6.84;66.81
30935;BME280;51033;42.648;23.292;2023-03-23T05:43:39;93912.44;;;6.88;66.44
30935;BME280;51033;42.648;23.292;2023-03-23T05:46:05;93899.47;;;5.82;70.84
30935;BME280;51033;42.648;23.292;2023-03-23T05:48:30;93919.84;;;6.29;70.12
30935;BME280;51033;42.648;23.292;2023-03-23T05:50:56;93906.66;;;6.48;68.88
30935;BME280;51033;42.648;23.292;2023-03-23T05:53:22;93922.63;;;6.38;69.42
30935;BME280;51033;42.648;23.292;2023-03-23T05:55:48;93920.13;;;6.47;69.52
30935;BME280;51033;42.648;23.292;2023-03-23T05:58:14;93918.78;;;6.86;67.40
30935;BME280;51033;42.648;23.292;2023-03-23T06:00:40;93927.97;;;6.94;66.93
30935;BME280;51033;42.648;23.292;2023-03-23T06:03:05;93913.31;;;6.83;67.39
30935;BME280;51033;42.648;23.292;2023-03-23T06:05:31;93931.00;;;7.01;67.09
30935;BME280;51033;42.648;23.292;2023-03-23T06:07:58;93907.44;;;6.86;67.22
30935;BME280;51033;42.648;23.292;2023-03-23T06:10:23;93930.44;;;7.04;66.87
30935;BME280;51033;42.648;23.292;2023-03-23T06:12:49;93921.06;;;7.12;66.87
30935;BME280;51033;42.648;23.292;2023-03-23T06:15:15;93881.28;;;7.03;66.27
30935;BME280;51033;42.648;23.292;2023-03-23T06:17:40;93921.22;;;7.34;66.55
30935;BME280;51033;42.648;23.292;2023-03-23T06:20:06;93912.59;;;6.59;68.77
30935;BME280;51033;42.648;23.292;2023-03-23T06:22:34;93907.38;;;6.72;69.80
30935;BME280;51033;42.648;23.292;2023-03-23T06:24:59;93922.28;;;7.01;68.03
30935;BME280;51033;42.648;23.292;2023-03-23T06:27:25;93897.94;;;7.04;67.56
30935;BME280;51033;42.648;23.292;2023-03-23T06:29:51;93901.88;;;7.20;67.55
30935;BME280;51033;42.648;23.292;2023-03-23T06:32:16;93936.41;;;7.10;68.56
30935;BME280;51033;42.648;23.292;2023-03-23T06:34:41;93926.34;;;7.44;67.58
30935;BME280;51033;42.648;23.292;2023-03-23T06:37:10;93926.03;;;7.32;67.17
30935;BME280;51033;42.648;23.292;2023-03-23T06:39:36;93914.41;;;7.14;67.04
30935;BME280;51033;42.648;23.292;2023-03-23T06:42:03;93912.94;;;7.08;68.09
30935;BME280;51033;42.648;23.292;2023-03-23T06:44:29;93919.19;;;7.45;66.26
30935;BME280;51033;42.648;23.292;2023-03-23T06:46:54;93935.16;;;6.89;68.28
30935;BME280;51033;42.648;23.292;2023-03-23T06:49:23;93938.94;;;6.82;70.02
30935;BME280;51033;42.648;23.292;2023-03-23T06:51:48;93941.72;;;6.91;68.64
30935;BME280;51033;42.648;23.292;2023-03-23T06:54:13;93943.72;;;6.80;69.58
30935;BME280;51033;42.648;23.292;2023-03-23T06:56:39;93919.59;;;6.50;70.38
30935;BME280;51033;42.648;23.292;2023-03-23T06:59:05;93935.25;;;6.83;70.22
30935;BME280;51033;42.648;23.292;2023-03-23T07:01:30;93932.56;;;6.46;71.92
30935;BME280;51033;42.648;23.292;2023-03-23T07:03:56;93950.28;;;7.20;69.44
30935;BME280;51033;42.648;23.292;2023-03-23T07:06:22;93956.72;;;7.65;68.43
30935;BME280;51033;42.648;23.292;2023-03-23T07:08:47;93950.97;;;6.94;70.72
30935;BME280;51033;42.648;23.292;2023-03-23T07:11:12;93932.06;;;7.19;70.37
30935;BME280;51033;42.648;23.292;2023-03-23T07:13:38;93939.91;;;7.24;71.30
30935;BME280;51033;42.648;23.292;2023-03-23T07:16:07;93951.78;;;6.70;73.82
30935;BME280;51033;42.648;23.292;2023-03-23T07:18:33;93958.25;;;6.64;73.97
30935;BME280;51033;42.648;23.292;2023-03-23T07:20:58;93951.34;;;6.45;74.64
30935;BME280;51033;42.648;23.292;2023-03-23T07:23:25;93956.66;;;6.63;73.76
30935;BME280;51033;42.648;23.292;2023-03-23T07:25:51;93953.22;;;6.81;74.16
30935;BME280;51033;42.648;23.292;2023-03-23T07:28:17;93935.25;;;6.83;72.93
30935;BME280;51033;42.648;23.292;2023-03-23T07:30:44;93947.44;;;7.49;72.27
30935;BME280;51033;42.648;23.292;2023-03-23T07:33:10;93950.22;;;7.90;70.27
30935;BME280;51033;42.648;23.292;2023-03-23T07:35:36;93941.84;;;7.83;69.66
30935;BME280;51033;42.648;23.292;2023-03-23T07:38:03;93955.88;;;7.51;71.22
30935;BME280;51033;42.648;23.292;2023-03-23T07:40:29;93947.59;;;7.39;71.41
30935;BME280;51033;42.648;23.292;2023-03-23T07:42:59;93919.69;;;7.33;71.01
30935;BME280;51033;42.648;23.292;2023-03-23T07:45:25;93935.41;;;8.03;69.13
30935;BME280;51033;42.648;23.292;2023-03-23T07:47:51;93961.88;;;7.89;70.62
30935;BME280;51033;42.648;23.292;2023-03-23T07:50:18;93972.09;;;7.96;69.51
30935;BME280;51033;42.648;23.292;2023-03-23T07:52:46;93967.41;;;8.20;68.61
30935;BME280;51033;42.648;23.292;2023-03-23T07:55:12;93971.72;;;8.57;66.74
30935;BME280;51033;42.648;23.292;2023-03-23T07:57:46;93955.94;;;8.11;65.88
30935;BME280;51033;42.648;23.292;2023-03-23T08:00:13;93972.84;;;7.83;67.86
30935;BME280;51033;42.648;23.292;2023-03-23T08:02:52;93952.19;;;8.12;67.25
30935;BME280;51033;42.648;23.292;2023-03-23T08:05:19;93933.94;;;7.51;67.27
30935;BME280;51033;42.648;23.292;2023-03-23T08:07:45;93971.84;;;7.79;67.51
30935;BME280;51033;42.648;23.292;2023-03-23T08:10:13;93981.72;;;8.19;66.50
30935;BME280;51033;42.648;23.292;2023-03-23T08:12:41;93984.38;;;7.73;66.84
30935;BME280;51033;42.648;23.292;2023-03-23T08:15:08;93973.84;;;7.87;67.67
30935;BME280;51033;42.648;23.292;2023-03-23T08:17:37;93957.50;;;7.66;68.10
30935;BME280;51033;42.648;23.292;2023-03-23T08:20:04;93972.84;;;7.83;67.64
30935;BME280;51033;42.648;23.292;2023-03-23T08:22:37;93963.88;;;8.38;66.91
30935;BME280;51033;42.648;23.292;2023-03-23T08:25:04;93964.06;;;8.01;66.29
30935;BME280;51033;42.648;23.292;2023-03-23T08:27:31;93970.16;;;8.42;67.22
30935;BME280;51033;42.648;23.292;2023-03-23T08:29:57;93979.75;;;8.79;64.75
30935;BME280;51033;42.648;23.292;2023-03-23T08:32:22;93968.81;;;8.81;62.93
30935;BME280;51033;42.648;23.292;2023-03-23T08:34:48;93971.69;;;8.71;61.54
30935;BME280;51033;42.648;23.292;2023-03-23T08:37:15;93971.34;;;9.13;61.44
30935;BME280;51033;42.648;23.292;2023-03-23T08:39:42;93960.44;;;8.65;62.07
30935;BME280;51033;42.648;23.292;2023-03-23T08:42:08;93937.56;;;8.55;57.14
30935;BME280;51033;42.648;23.292;2023-03-23T08:44:33;93962.19;;;8.70;53.89
30935;BME280;51033;42.648;23.292;2023-03-23T08:46:59;93949.03;;;8.65;58.31
30935;BME280;51033;42.648;23.292;2023-03-23T08:49:25;93963.81;;;8.93;56.40
30935;BME280;51033;42.648;23.292;2023-03-23T08:51:51;93968.34;;;9.51;55.20
30935;BME280;51033;42.648;23.292;2023-03-23T08:54:16;93958.34;;;9.48;53.20
30935;BME280;51033;42.648;23.292;2023-03-23T08:56:42;93959.03;;;9.17;53.80
30935;BME280;51033;42.648;23.292;2023-03-23T08:59:08;93971.13;;;9.45;53.13
30935;BME280;51033;42.648;23.292;2023-03-23T09:01:34;93968.19;;;9.47;50.63
30935;BME280;51033;42.648;23.292;2023-03-23T09:03:59;93953.56;;;9.36;50.75
30935;BME280;51033;42.648;23.292;2023-03-23T09:06:25;93955.19;;;9.45;49.48
30935;BME280;51033;42.648;23.292;2023-03-23T09:08:51;93955.84;;;10.04;51.16
30935;BME280;51033;42.648;23.292;2023-03-23T09:11:16;93967.06;;;9.26;50.31
30935;BME280;51033;42.648;23.292;2023-03-23T09:13:42;93972.69;;;9.47;51.19
30935;BME280;51033;42.648;23.292;2023-03-23T09:16:08;93944.56;;;9.45;50.41
30935;BME280;51033;42.648;23.292;2023-03-23T09:18:34;93956.28;;;9.44;51.22
30935;BME280;51033;42.648;23.292;2023-03-23T09:21:00;93956.41;;;9.39;50.78
30935;BME280;51033;42.648;23.292;2023-03-23T09:23:27;93962.91;;;9.78;50.99
30935;BME280;51033;42.648;23.292;2023-03-23T09:25:52;93959.09;;;9.93;50.13
30935;BME280;51033;42.648;23.292;2023-03-23T09:28:19;93959.84;;;9.93;49.60
30935;BME280;51033;42.648;23.292;2023-03-23T09:30:45;93955.25;;;9.54;49.62
30935;BME280;51033;42.648;23.292;2023-03-23T09:33:11;93956.53;;;9.57;51.20
30935;BME280;51033;42.648;23.292;2023-03-23T09:35:38;93952.53;;;9.68;49.97
30935;BME280;51033;42.648;23.292;2023-03-23T09:38:04;93939.22;;;9.90;49.77
30935;BME280;51033;42.648;23.292;2023-03-23T09:54:03;93932.00;;;9.82;48.37
30935;BME280;51033;42.648;23.292;2023-03-23T09:56:30;93934.22;;;10.28;51.24
30935;BME280;51033;42.648;23.292;2023-03-23T09:59:09;93933.38;;;10.10;48.27
30935;BME280;51033;42.648;23.292;2023-03-23T10:01:55;93928.75;;;10.24;48.49
30935;BME280;51033;42.648;23.292;2023-03-23T10:04:28;93933.09;;;10.60;48.22
30935;BME280;51033;42.648;23.292;2023-03-23T10:07:22;93934.81;;;10.56;47.48
30935;BME280;51033;42.648;23.292;2023-03-23T10:09:54;93887.78;;;9.86;47.76
30935;BME280;51033;42.648;23.292;2023-03-23T10:15:30;93937.91;;;10.10;47.64
30935;BME280;51033;42.648;23.292;2023-03-23T10:23:12;93922.44;;;10.51;47.51
30935;BME280;51033;42.648;23.292;2023-03-23T10:25:41;93904.34;;;10.70;49.44
30935;BME280;51033;42.648;23.292;2023-03-23T10:28:15;93904.00;;;10.72;45.95
30935;BME280;51033;42.648;23.292;2023-03-23T10:30:45;93910.28;;;10.19;47.05
30935;BME280;51033;42.648;23.292;2023-03-23T10:38:31;93911.69;;;10.65;47.72
30935;BME280;51033;42.648;23.292;2023-03-23T10:41:01;93916.66;;;10.58;46.53
30935;BME280;51033;42.648;23.292;2023-03-23T10:43:30;93920.00;;;10.32;47.89
30935;BME280;51033;42.648;23.292;2023-03-23T10:46:04;93929.69;;;10.28;47.56
30935;BME280;51033;42.648;23.292;2023-03-23T10:48:36;93888.31;;;10.45;47.76
30935;BME280;51033;42.648;23.292;2023-03-23T10:51:07;93900.44;;;11.02;46.46
30935;BME280;51033;42.648;23.292;2023-03-23T10:53:37;93904.19;;;11.01;46.65
30935;BME280;51033;42.648;23.292;2023-03-23T10:56:04;93907.47;;;10.81;46.22
30935;BME280;51033;42.648;23.292;2023-03-23T10:58:33;93895.44;;;11.09;46.17
30935;BME280;51033;42.648;23.292;2023-03-23T11:01:02;93908.56;;;10.80;44.95
30935;BME280;51033;42.648;23.292;2023-03-23T11:03:46;93910.13;;;10.81;44.68
30935;BME280;51033;42.648;23.292;2023-03-23T11:06:23;93897.78;;;11.28;46.76
30935;BME280;51033;42.648;23.292;2023-03-23T11:08:58;93902.78;;;11.04;46.34
30935;BME280;51033;42.648;23.292;2023-03-23T11:11:28;93901.69;;;11.13;46.85
30935;BME280;51033;42.648;23.292;2023-03-23T11:14:00;93910.16;;;10.98;45.59
30935;BME280;51033;42.648;23.292;2023-03-23T11:16:29;93903.56;;;10.87;45.38
30935;BME280;51033;42.648;23.292;2023-03-23T11:18:57;93894.00;;;11.12;45.97
30935;BME280;51033;42.648;23.292;2023-03-23T11:21:24;93889.78;;;11.02;44.57
30935;BME280;51033;42.648;23.292;2023-03-23T11:23:55;93872.88;;;10.72;44.50
30935;BME280;51033;42.648;23.292;2023-03-23T11:26:29;93882.56;;;11.20;44.19
30935;BME280;51033;42.648;23.292;2023-03-23T11:29:16;93888.22;;;11.01;44.80
30935;BME280;51033;42.648;23.292;2023-03-23T11:31:44;93871.63;;;10.87;45.71
30935;BME280;51033;42.648;23.292;2023-03-23T11:34:24;93883.22;;;10.83;46.23
30935;BME280;51033;42.648;23.292;2023-03-23T11:36:55;93872.41;;;10.88;45.73
30935;BME280;51033;42.648;23.292;2023-03-23T11:41:55;93877.25;;;11.11;44.81
30935;BME280;51033;42.648;23.292;2023-03-23T11:44:23;93856.28;;;11.01;43.08
30935;BME280;51033;42.648;23.292;2023-03-23T11:47:04;93863.44;;;11.61;45.87
30935;BME280;51033;42.648;23.292;2023-03-23T11:52:13;93841.22;;;11.31;45.30
30935;BME280;51033;42.648;23.292;2023-03-23T11:55:15;93866.75;;;11.32;44.82
30935;BME280;51033;42.648;23.292;2023-03-23T11:57:42;93851.56;;;11.15;44.56
30935;BME280;51033;42.648;23.292;2023-03-23T12:00:19;93852.00;;;11.35;44.59
30935;BME280;51033;42.648;23.292;2023-03-23T12:03:05;93853.25;;;11.46;44.28
30935;BME280;51033;42.648;23.292;2023-03-23T12:06:00;93853.88;;;11.60;43.42
30935;BME280;51033;42.648;23.292;2023-03-23T12:23:01;93845.69;;;12.12;42.75
30935;BME280;51033;42.648;23.292;2023-03-23T12:25:13;93833.78;;;11.71;42.40
30935;BME280;51033;42.648;23.292;2023-03-23T12:27:53;93829.72;;;11.65;43.48
30935;BME280;51033;42.648;23.292;2023-03-23T12:38:36;93846.31;;;13.09;41.19
30935;BME280;51033;42.648;23.292;2023-03-23T12:41:26;93827.16;;;13.07;40.78
30935;BME280;51033;42.648;23.292;2023-03-23T12:44:00;93822.09;;;12.93;40.69
30935;BME280;51033;42.648;23.292;2023-03-23T12:46:55;93806.78;;;13.02;42.08
30935;BME280;51033;42.648;23.292;2023-03-23T12:55:45;93826.41;;;12.85;40.80
30935;BME280;51033;42.648;23.292;2023-03-23T12:58:25;93811.19;;;12.36;41.82
30935;BME280;51033;42.648;23.292;2023-03-23T13:01:34;93821.16;;;12.27;41.45
30935;BME280;51033;42.648;23.292;2023-03-23T13:06:35;93819.31;;;12.39;41.51
30935;BME280;51033;42.648;23.292;2023-03-23T13:11:47;93807.41;;;12.16;40.38
30935;BME280;51033;42.648;23.292;2023-03-23T13:19:23;93807.69;;;12.44;40.50
30935;BME280;51033;42.648;23.292;2023-03-23T13:24:26;93780.72;;;12.16;41.10
30935;BME280;51033;42.648;23.292;2023-03-23T13:26:53;93805.28;;;12.30;40.82
30935;BME280;51033;42.648;23.292;2023-03-23T13:29:23;93796.63;;;12.33;40.84
30935;BME280;51033;42.648;23.292;2023-03-23T13:31:50;93800.88;;;12.55;40.65
30935;BME280;51033;42.648;23.292;2023-03-23T13:34:22;93804.97;;;12.23;41.00
30935;BME280;51033;42.648;23.292;2023-03-23T13:37:05;93792.25;;;12.29;40.72
30935;BME280;51033;42.648;23.292;2023-03-23T13:42:26;93796.91;;;12.11;41.24
30935;BME280;51033;42.648;23.292;2023-03-23T13:49:58;93778.81;;;12.87;40.66
30935;BME280;51033;42.648;23.292;2023-03-23T13:58:27;93783.94;;;13.25;40.26
30935;BME280;51033;42.648;23.292;2023-03-23T14:03:36;93780.09;;;13.02;40.16
30935;BME280;51033;42.648;23.292;2023-03-23T14:06:22;93778.38;;;12.65;40.13
30935;BME280;51033;42.648;23.292;2023-03-23T14:08:53;93776.34;;;12.82;40.78
30935;BME280;51033;42.648;23.292;2023-03-23T14:11:24;93775.34;;;12.87;39.74
30935;BME280;51033;42.648;23.292;2023-03-23T14:16:48;93764.38;;;13.01;40.38
30935;BME280;51033;42.648;23.292;2023-03-23T14:19:38;93771.19;;;12.77;40.17
30935;BME280;51033;42.648;23.292;2023-03-23T14:22:04;93757.91;;;12.89;40.33
30935;BME280;51033;42.648;23.292;2023-03-23T14:24:39;93765.59;;;13.36;39.93
30935;BME280;51033;42.648;23.292;2023-03-23T14:29:30;93721.94;;;13.77;38.95
30935;BME280;51033;42.648;23.292;2023-03-23T14:31:57;93765.09;;;14.40;37.54
30935;BME280;51033;42.648;23.292;2023-03-23T14:34:26;93763.47;;;14.11;38.46
30935;BME280;51033;42.648;23.292;2023-03-23T14:36:53;93757.69;;;13.97;38.73
30935;BME280;51033;42.648;23.292;2023-03-23T14:39:32;93765.38;;;13.41;39.95
30935;BME280;51033;42.648;23.292;2023-03-23T14:42:03;93768.88;;;13.09;40.96
30935;BME280;51033;42.648;23.292;2023-03-23T14:44:31;93755.28;;;13.02;40.08
30935;BME280;51033;42.648;23.292;2023-03-23T14:47:00;93765.72;;;12.95;40.29
30935;BME280;51033;42.648;23.292;2023-03-23T14:49:37;93764.66;;;13.08;40.20
30935;BME280;51033;42.648;23.292;2023-03-23T14:52:16;93767.69;;;12.85;40.48
30935;BME280;51033;42.648;23.292;2023-03-23T14:54:44;93757.47;;;12.87;40.49
30935;BME280;51033;42.648;23.292;2023-03-23T14:59:42;93753.63;;;13.54;39.38
30935;BME280;51033;42.648;23.292;2023-03-23T15:02:22;93753.56;;;13.63;39.94
30935;BME280;51033;42.648;23.292;2023-03-23T15:04:52;93760.09;;;13.53;39.74
30935;BME280;51033;42.648;23.292;2023-03-23T15:07:19;93765.78;;;13.76;39.18
30935;BME280;51033;42.648;23.292;2023-03-23T15:09:46;93719.56;;;13.06;39.77
30935;BME280;51033;42.648;23.292;2023-03-23T15:12:26;93759.88;;;12.80;40.70